createdAt,value
2019-04-30T00:02:06.474Z,10.55
2019-04-30T00:04:40.460Z,10.54
2019-04-30T00:07:15.473Z,10.51
2019-04-30T00:09:49.279Z,10.50
2019-04-30T00:12:20.531Z,10.49
2019-04-30T00:14:54.928Z,10.50
2019-04-30T00:17:28.223Z,10.52
2019-04-30T00:20:00.423Z,10.46
2019-04-30T00:22:34.315Z,10.50
2019-04-30T00:25:07.268Z,10.48
2019-04-30T00:27:39.109Z,10.47
2019-04-30T00:30:11.149Z,10.49
2019-04-30T00:32:45.599Z,10.50
2019-04-30T00:35:19.656Z,10.49
2019-04-30T00:37:51.995Z,10.51
2019-04-30T00:40:26.698Z,10.52
2019-04-30T00:43:00.129Z,10.48
2019-04-30T00:45:32.563Z,10.48
2019-04-30T00:48:05.990Z,10.48
2019-04-30T00:50:37.905Z,10.48
2019-04-30T00:53:12.352Z,10.47
2019-04-30T00:55:44.924Z,10.46
2019-04-30T00:58:24.832Z,10.42
2019-04-30T01:00:55.476Z,10.40
2019-04-30T01:03:29.000Z,10.39
2019-04-30T01:06:00.964Z,10.41
2019-04-30T01:08:33.153Z,10.37
2019-04-30T01:11:09.377Z,10.35
2019-04-30T01:13:45.631Z,10.36
2019-04-30T01:16:13.041Z,10.36
2019-04-30T01:18:44.809Z,10.32
2019-04-30T01:21:18.515Z,10.30
2019-04-30T01:23:54.532Z,10.32
2019-04-30T01:26:27.761Z,10.29
2019-04-30T01:29:02.044Z,10.29
2019-04-30T01:31:37.350Z,10.28
2019-04-30T01:34:12.346Z,10.29
2019-04-30T01:36:43.431Z,10.26
2019-04-30T01:39:14.958Z,10.28
2019-04-30T01:41:48.638Z,10.28
2019-04-30T01:44:20.067Z,10.25
2019-04-30T01:46:51.828Z,10.26
2019-04-30T01:49:25.743Z,10.26
2019-04-30T01:51:58.524Z,10.26
2019-04-30T01:54:31.083Z,10.27
2019-04-30T01:57:10.728Z,10.25
2019-04-30T02:00:00.650Z,10.27
2019-04-30T02:02:39.443Z,10.29
2019-04-30T02:05:12.199Z,10.31
2019-04-30T02:07:46.007Z,10.31
2019-04-30T02:10:18.594Z,10.30
2019-04-30T02:12:50.551Z,10.30
2019-04-30T02:15:23.232Z,10.32
2019-04-30T02:17:55.203Z,10.31
2019-04-30T02:20:28.696Z,10.31
2019-04-30T02:23:01.297Z,10.32
2019-04-30T02:25:33.025Z,10.34
2019-04-30T02:28:05.011Z,10.35
2019-04-30T02:30:36.880Z,10.37
2019-04-30T02:33:09.636Z,10.34
2019-04-30T02:35:43.371Z,10.35
2019-04-30T02:38:26.294Z,10.36
2019-04-30T02:40:59.480Z,10.37
2019-04-30T02:43:34.128Z,10.39
2019-04-30T02:46:06.093Z,10.43
2019-04-30T02:48:39.835Z,10.45
2019-04-30T02:51:12.387Z,10.46
2019-04-30T02:53:52.715Z,10.45
2019-04-30T02:56:27.029Z,10.48
2019-04-30T02:59:03.198Z,10.48
2019-04-30T03:01:32.904Z,10.49
2019-04-30T03:04:05.175Z,10.50
2019-04-30T03:06:36.733Z,10.53
2019-04-30T03:09:10.349Z,10.50
2019-04-30T03:11:42.596Z,10.47
2019-04-30T03:14:14.594Z,10.44
2019-04-30T03:16:52.722Z,10.44
2019-04-30T03:19:31.322Z,10.47
2019-04-30T03:22:05.029Z,10.57
2019-04-30T03:24:39.797Z,10.54
2019-04-30T03:27:10.068Z,10.58
2019-04-30T03:29:43.308Z,10.62
2019-04-30T03:32:15.052Z,10.69
2019-04-30T03:34:51.109Z,10.76
2019-04-30T03:37:20.161Z,10.82
2019-04-30T03:39:52.380Z,10.84
2019-04-30T03:42:24.557Z,10.92
2019-04-30T03:44:59.089Z,10.97
2019-04-30T03:47:30.309Z,11.03
2019-04-30T03:50:02.091Z,11.10
2019-04-30T03:52:34.162Z,11.17
2019-04-30T03:55:09.220Z,11.21
2019-04-30T03:57:41.038Z,11.31
2019-04-30T04:00:15.172Z,11.34
2019-04-30T04:02:47.057Z,11.35
2019-04-30T04:05:20.624Z,11.38
2019-04-30T04:08:10.637Z,11.50
2019-04-30T04:10:52.597Z,11.61
2019-04-30T04:13:21.122Z,11.67
2019-04-30T04:15:52.879Z,11.73
2019-04-30T04:18:24.529Z,11.78
2019-04-30T04:21:08.740Z,11.83
2019-04-30T04:23:32.820Z,11.90
2019-04-30T04:26:03.482Z,11.91
2019-04-30T04:28:35.451Z,11.99
2019-04-30T04:31:09.562Z,12.04
2019-04-30T04:33:40.934Z,12.09
2019-04-30T04:36:13.020Z,12.11
2019-04-30T04:38:44.949Z,12.05
2019-04-30T04:41:16.620Z,11.95
2019-04-30T04:43:50.492Z,11.86
2019-04-30T04:46:23.008Z,11.82
2019-04-30T04:48:55.076Z,11.80
2019-04-30T04:51:36.712Z,11.80
2019-04-30T04:54:03.356Z,11.83
2019-04-30T04:56:33.836Z,11.87
2019-04-30T04:59:05.905Z,11.93
2019-04-30T05:01:38.751Z,12.00
2019-04-30T05:04:11.847Z,12.04
2019-04-30T05:06:43.751Z,12.09
2019-04-30T05:09:15.921Z,12.15
2019-04-30T05:11:48.717Z,12.24
2019-04-30T05:14:21.087Z,12.35
2019-04-30T05:16:52.830Z,12.46
2019-04-30T05:19:25.823Z,12.61
2019-04-30T05:21:59.682Z,12.81
2019-04-30T05:24:31.612Z,13.12
2019-04-30T05:27:03.692Z,13.48
2019-04-30T05:29:35.223Z,13.79
2019-04-30T05:32:09.150Z,14.12
2019-04-30T05:34:40.809Z,14.51
2019-04-30T05:37:12.775Z,14.88
2019-04-30T05:39:44.638Z,15.24
2019-04-30T05:42:16.445Z,15.53
2019-04-30T05:44:49.684Z,15.75
2019-04-30T05:47:21.543Z,15.82
2019-04-30T05:49:53.631Z,15.86
2019-04-30T05:52:25.597Z,15.86
2019-04-30T05:54:58.503Z,15.81
2019-04-30T05:57:30.971Z,15.87
2019-04-30T06:00:03.158Z,15.96
2019-04-30T06:02:35.315Z,15.96
2019-04-30T06:05:08.710Z,15.98
2019-04-30T06:07:40.755Z,15.95
2019-04-30T06:10:14.617Z,15.86
2019-04-30T06:12:49.333Z,15.75
2019-04-30T06:15:29.136Z,15.62
2019-04-30T06:18:10.736Z,15.54
2019-04-30T06:20:35.859Z,15.63
2019-04-30T06:23:09.123Z,15.78
2019-04-30T06:25:56.266Z,15.83
2019-04-30T06:28:15.326Z,15.92
2019-04-30T06:30:49.280Z,16.01
2019-04-30T06:33:21.533Z,16.13
2019-04-30T06:35:53.783Z,16.22
2019-04-30T06:38:25.873Z,16.30
2019-04-30T06:40:58.873Z,16.41
2019-04-30T06:43:31.343Z,16.48
2019-04-30T06:46:03.906Z,16.70
2019-04-30T06:48:36.711Z,16.97
2019-04-30T06:51:09.066Z,17.31
2019-04-30T06:53:41.027Z,17.49
2019-04-30T06:56:13.013Z,17.67
2019-04-30T06:58:45.184Z,17.67
2019-04-30T07:01:18.955Z,17.64
2019-04-30T07:03:50.747Z,17.60
2019-04-30T07:06:29.596Z,17.60
2019-04-30T07:09:00.708Z,17.46
2019-04-30T07:11:34.720Z,17.35
2019-04-30T07:14:06.915Z,17.30
2019-04-30T07:16:39.744Z,17.27
2019-04-30T07:19:11.662Z,17.34
2019-04-30T07:21:45.318Z,17.42
2019-04-30T07:24:20.800Z,17.42
2019-04-30T07:26:54.740Z,17.51
2019-04-30T07:29:25.068Z,17.70
2019-04-30T07:31:59.130Z,17.84
2019-04-30T07:34:36.544Z,17.84
2019-04-30T07:37:16.358Z,17.86
2019-04-30T07:39:39.065Z,17.99
2019-04-30T07:42:10.705Z,18.08
2019-04-30T07:44:42.682Z,18.10
2019-04-30T07:47:14.435Z,18.18
2019-04-30T07:49:52.128Z,18.18
2019-04-30T07:52:21.443Z,18.24
2019-04-30T07:54:53.008Z,18.36
2019-04-30T07:57:24.853Z,18.41
2019-04-30T07:59:56.678Z,18.46
2019-04-30T08:02:36.941Z,18.55
2019-04-30T08:05:15.291Z,18.60
2019-04-30T08:07:48.985Z,18.65
2019-04-30T08:10:20.161Z,18.80
2019-04-30T08:12:52.328Z,18.88
2019-04-30T08:15:24.405Z,18.97
2019-04-30T08:18:03.558Z,19.00
2019-04-30T08:20:29.683Z,19.00
2019-04-30T08:23:13.346Z,19.03
2019-04-30T08:25:35.253Z,19.17
2019-04-30T08:28:08.960Z,19.24
2019-04-30T08:30:41.919Z,19.35
2019-04-30T08:33:13.990Z,19.38
2019-04-30T08:35:47.386Z,19.49
2019-04-30T08:38:19.271Z,19.51
2019-04-30T08:40:57.668Z,19.63
2019-04-30T08:43:24.720Z,19.63
2019-04-30T08:45:56.293Z,19.63
2019-04-30T08:48:41.940Z,19.59
2019-04-30T08:51:01.645Z,19.58
2019-04-30T08:53:34.398Z,19.48
2019-04-30T08:56:06.307Z,19.51
2019-04-30T08:58:39.105Z,19.60
2019-04-30T09:01:10.953Z,19.64
2019-04-30T09:03:42.826Z,19.72
2019-04-30T09:06:16.176Z,19.88
2019-04-30T09:08:49.072Z,19.99
2019-04-30T09:11:27.292Z,20.08
2019-04-30T09:13:54.275Z,20.16
2019-04-30T09:16:26.349Z,20.18
2019-04-30T09:18:59.736Z,20.26
2019-04-30T09:21:31.380Z,20.39
2019-04-30T09:24:03.104Z,20.53
2019-04-30T09:26:34.921Z,20.64
2019-04-30T09:29:06.904Z,20.66
2019-04-30T09:31:40.961Z,20.69
2019-04-30T09:34:17.077Z,20.74
2019-04-30T09:36:45.430Z,20.95
2019-04-30T09:39:19.502Z,21.23
2019-04-30T09:41:50.613Z,21.30
2019-04-30T09:44:22.475Z,21.42
2019-04-30T09:46:54.540Z,21.48
2019-04-30T09:49:26.299Z,21.48
2019-04-30T09:51:59.418Z,21.65
2019-04-30T09:54:31.882Z,21.74
2019-04-30T09:57:04.746Z,21.76
2019-04-30T09:59:36.603Z,21.69
2019-04-30T10:02:09.309Z,21.66
2019-04-30T10:04:41.409Z,21.65
2019-04-30T10:07:13.542Z,21.57
2019-04-30T10:09:45.205Z,21.60
2019-04-30T10:12:19.380Z,21.59
2019-04-30T10:14:50.076Z,21.57
2019-04-30T10:17:25.995Z,21.60
2019-04-30T10:19:57.887Z,21.68
2019-04-30T10:22:29.826Z,21.91
2019-04-30T10:25:01.714Z,22.02
2019-04-30T10:27:34.380Z,22.09
2019-04-30T10:30:09.339Z,21.90
2019-04-30T10:32:40.989Z,21.83
2019-04-30T10:35:12.952Z,21.80
2019-04-30T10:37:44.898Z,22.00
2019-04-30T10:40:20.063Z,22.01
2019-04-30T10:42:50.188Z,22.05
2019-04-30T10:45:22.195Z,22.11
2019-04-30T10:47:53.897Z,22.26
2019-04-30T10:50:26.269Z,22.23
2019-04-30T10:52:59.119Z,22.19
2019-04-30T10:55:31.116Z,22.11
2019-04-30T10:58:03.002Z,22.16
2019-04-30T11:00:40.135Z,22.36
2019-04-30T11:03:20.016Z,22.39
2019-04-30T11:05:45.488Z,22.34
2019-04-30T11:08:17.416Z,22.42
2019-04-30T11:10:49.478Z,22.52
2019-04-30T11:13:21.230Z,22.55
2019-04-30T11:15:52.787Z,22.58
2019-04-30T11:18:25.059Z,22.48
2019-04-30T11:20:57.158Z,22.41
2019-04-30T11:23:29.758Z,22.54
2019-04-30T11:26:02.726Z,22.52
2019-04-30T11:28:35.042Z,22.62
2019-04-30T11:31:08.698Z,22.70
2019-04-30T11:33:40.671Z,22.85
2019-04-30T11:36:12.525Z,22.75
2019-04-30T11:38:44.373Z,22.99
2019-04-30T11:41:29.805Z,23.18
2019-04-30T11:43:50.055Z,23.07
2019-04-30T11:46:28.703Z,22.86
2019-04-30T11:49:00.520Z,22.66
2019-04-30T11:51:32.373Z,22.51
2019-04-30T11:54:04.663Z,22.60
2019-04-30T11:56:38.367Z,22.83
2019-04-30T11:59:09.640Z,23.01
2019-04-30T12:01:42.512Z,22.89
2019-04-30T12:04:14.186Z,22.48
2019-04-30T12:06:46.238Z,22.26
2019-04-30T12:09:35.941Z,22.32
2019-04-30T12:12:09.143Z,22.25
2019-04-30T12:14:40.901Z,22.39
2019-04-30T12:17:12.863Z,22.51
2019-04-30T12:19:44.931Z,22.54
2019-04-30T12:22:20.041Z,22.60
2019-04-30T12:25:02.269Z,22.69
2019-04-30T12:27:24.521Z,22.65
2019-04-30T12:29:56.257Z,22.67
2019-04-30T12:32:29.872Z,22.66
2019-04-30T12:35:01.644Z,22.66
2019-04-30T12:37:33.973Z,22.58
2019-04-30T12:40:10.856Z,22.52
2019-04-30T12:42:42.544Z,22.49
2019-04-30T12:45:14.740Z,22.27
2019-04-30T12:47:48.116Z,21.98
2019-04-30T12:50:29.204Z,21.66
2019-04-30T12:53:02.915Z,21.52
2019-04-30T12:55:42.463Z,21.44
2019-04-30T12:58:14.529Z,21.55
2019-04-30T13:00:46.394Z,21.51
2019-04-30T13:03:18.464Z,21.64
2019-04-30T13:05:51.241Z,21.64
2019-04-30T13:08:24.242Z,21.58
2019-04-30T13:10:56.863Z,21.66
2019-04-30T13:13:31.696Z,21.65
2019-04-30T13:16:02.285Z,21.63
2019-04-30T13:18:34.360Z,21.51
2019-04-30T13:21:06.219Z,21.57
2019-04-30T13:23:38.392Z,21.65
2019-04-30T13:26:10.137Z,21.52
2019-04-30T13:28:58.509Z,21.61
2019-04-30T13:31:30.266Z,21.63
2019-04-30T13:34:03.858Z,21.48
2019-04-30T13:36:35.714Z,21.44
2019-04-30T13:39:15.991Z,21.31
2019-04-30T13:42:15.831Z,21.18
2019-04-30T13:44:41.517Z,21.09
2019-04-30T13:47:13.296Z,21.14
2019-04-30T13:49:45.037Z,21.22
2019-04-30T13:52:16.822Z,21.29
2019-04-30T13:54:48.782Z,21.37
2019-04-30T13:57:20.538Z,21.44
2019-04-30T13:59:52.504Z,21.48
2019-04-30T14:02:24.316Z,21.25
2019-04-30T14:05:12.909Z,21.04
2019-04-30T14:08:02.500Z,20.82
2019-04-30T14:10:36.210Z,20.66
2019-04-30T14:13:08.382Z,20.59
2019-04-30T14:15:41.353Z,20.66
2019-04-30T14:18:13.649Z,20.71
2019-04-30T14:20:45.697Z,20.57
2019-04-30T14:23:18.629Z,20.75
2019-04-30T14:25:56.794Z,20.75
2019-04-30T14:28:23.773Z,20.53
2019-04-30T14:30:55.529Z,20.47
2019-04-30T14:33:29.388Z,20.27
2019-04-30T14:36:01.202Z,20.24
2019-04-30T14:38:33.170Z,20.07
2019-04-30T14:41:06.224Z,19.95
2019-04-30T14:43:42.311Z,19.96
2019-04-30T14:46:31.149Z,19.71
2019-04-30T14:49:14.771Z,19.32
2019-04-30T14:51:44.645Z,19.11
2019-04-30T14:54:21.116Z,18.93
2019-04-30T14:57:00.554Z,18.78
2019-04-30T14:59:50.630Z,18.67
2019-04-30T15:02:26.997Z,18.48
2019-04-30T15:04:58.865Z,18.36
2019-04-30T15:07:30.934Z,18.17
2019-04-30T15:10:05.205Z,18.04
2019-04-30T15:12:37.029Z,17.89
2019-04-30T15:15:09.383Z,17.79
2019-04-30T15:17:41.320Z,17.77
2019-04-30T15:20:13.216Z,17.66
2019-04-30T15:22:52.775Z,17.60
2019-04-30T15:25:24.639Z,17.47
2019-04-30T15:27:58.961Z,17.39
2019-04-30T15:30:30.722Z,17.30
2019-04-30T15:33:20.507Z,17.21
2019-04-30T15:35:52.458Z,17.10
2019-04-30T15:38:25.757Z,17.05
2019-04-30T15:40:57.738Z,16.94
2019-04-30T15:43:29.909Z,16.80
2019-04-30T15:46:01.673Z,16.73
2019-04-30T15:48:33.841Z,16.65
2019-04-30T15:51:05.708Z,16.64
2019-04-30T15:53:37.551Z,16.54
2019-04-30T15:56:09.210Z,16.41
2019-04-30T15:58:45.903Z,16.27
2019-04-30T16:01:19.239Z,16.21
2019-04-30T16:03:52.601Z,16.09
2019-04-30T16:06:24.470Z,16.01
2019-04-30T16:09:12.712Z,15.89
2019-04-30T16:11:46.511Z,15.82
2019-04-30T16:14:29.506Z,15.77
2019-04-30T16:17:05.715Z,15.73
2019-04-30T16:19:37.590Z,15.68
2019-04-30T16:22:09.338Z,15.48
2019-04-30T16:24:40.984Z,15.25
2019-04-30T16:27:13.174Z,15.00
2019-04-30T16:29:44.893Z,14.77
2019-04-30T16:32:16.902Z,14.63
2019-04-30T16:34:49.815Z,14.46
2019-04-30T16:37:21.632Z,14.31
2019-04-30T16:39:53.495Z,14.14
2019-04-30T16:42:25.278Z,14.02
2019-04-30T16:45:00.562Z,13.91
2019-04-30T16:47:30.642Z,13.77
2019-04-30T16:50:02.638Z,13.68
2019-04-30T16:52:34.679Z,13.61
2019-04-30T16:55:07.857Z,13.56
2019-04-30T16:57:40.041Z,13.52
2019-04-30T17:00:13.809Z,13.50
2019-04-30T17:02:46.929Z,13.45
2019-04-30T17:05:39.485Z,13.40
2019-04-30T17:08:15.670Z,13.35
2019-04-30T17:10:58.181Z,13.32
2019-04-30T17:13:31.783Z,13.29
2019-04-30T17:16:12.603Z,13.26
2019-04-30T17:18:44.307Z,13.24
2019-04-30T17:21:16.187Z,13.24
2019-04-30T17:23:50.593Z,13.24
2019-04-30T17:26:21.652Z,13.22
2019-04-30T17:28:56.381Z,13.26
2019-04-30T17:31:28.351Z,13.27
2019-04-30T17:34:00.091Z,13.26
2019-04-30T17:36:32.200Z,13.25
2019-04-30T17:39:05.376Z,13.26
2019-04-30T17:41:37.765Z,13.24
2019-04-30T17:44:09.408Z,13.19
2019-04-30T17:46:41.348Z,13.17
2019-04-30T17:49:13.462Z,13.15
2019-04-30T17:51:45.101Z,13.09
2019-04-30T17:54:18.395Z,13.03
2019-04-30T17:56:50.463Z,12.95
2019-04-30T17:59:22.185Z,12.88
2019-04-30T18:01:59.599Z,12.80
2019-04-30T18:04:31.790Z,12.73
2019-04-30T18:07:03.575Z,12.64
2019-04-30T18:09:35.519Z,12.54
2019-04-30T18:12:09.428Z,12.46
2019-04-30T18:14:41.292Z,12.41
2019-04-30T18:17:13.387Z,12.35
2019-04-30T18:19:49.790Z,12.32
2019-04-30T18:22:29.359Z,12.33
2019-04-30T18:25:10.463Z,12.29
2019-04-30T18:27:46.291Z,12.25
2019-04-30T18:30:21.121Z,12.25
2019-04-30T18:32:52.729Z,12.23
2019-04-30T18:35:24.470Z,12.22
2019-04-30T18:37:58.462Z,12.09
2019-04-30T18:40:29.818Z,12.00
2019-04-30T18:43:01.803Z,11.95
2019-04-30T18:45:33.673Z,11.88
2019-04-30T18:48:05.883Z,11.87
2019-04-30T18:50:38.098Z,11.85
2019-04-30T18:53:23.643Z,11.84
2019-04-30T18:55:55.868Z,11.82
2019-04-30T18:58:39.334Z,11.84
2019-04-30T19:01:00.809Z,11.83
2019-04-30T19:03:33.705Z,11.81
2019-04-30T19:06:09.859Z,11.78
2019-04-30T19:08:44.780Z,11.79
2019-04-30T19:11:32.702Z,11.80
2019-04-30T19:14:21.505Z,11.79
2019-04-30T19:16:59.523Z,11.81
2019-04-30T19:19:40.220Z,11.81
2019-04-30T19:22:11.858Z,11.81
2019-04-30T19:24:55.587Z,11.80
2019-04-30T19:27:18.635Z,11.80
2019-04-30T19:29:51.781Z,11.80
2019-04-30T19:32:23.419Z,11.78
2019-04-30T19:34:55.404Z,11.79
2019-04-30T19:37:27.209Z,11.79
2019-04-30T19:39:59.070Z,11.74
2019-04-30T19:42:30.944Z,11.71
2019-04-30T19:45:09.553Z,11.68
2019-04-30T19:47:36.206Z,11.70
2019-04-30T19:50:09.386Z,11.66
2019-04-30T19:52:41.246Z,11.62
2019-04-30T19:55:13.222Z,11.58
2019-04-30T19:57:45.050Z,11.52
2019-04-30T20:00:17.458Z,11.48
2019-04-30T20:02:49.089Z,11.45
2019-04-30T20:05:20.680Z,11.40
2019-04-30T20:07:52.445Z,11.36
2019-04-30T20:10:24.299Z,11.35
2019-04-30T20:12:58.652Z,11.33
2019-04-30T20:15:29.921Z,11.32
2019-04-30T20:18:03.265Z,11.32
2019-04-30T20:20:35.336Z,11.32
2019-04-30T20:23:07.000Z,11.31
2019-04-30T20:25:38.652Z,11.32
2019-04-30T20:28:12.205Z,11.30
2019-04-30T20:30:43.922Z,11.25
2019-04-30T20:33:15.976Z,11.24
2019-04-30T20:35:48.905Z,11.23
2019-04-30T20:38:34.449Z,11.24
2019-04-30T20:41:09.215Z,11.23
2019-04-30T20:43:40.877Z,11.24
2019-04-30T20:46:13.026Z,11.22
2019-04-30T20:48:49.158Z,11.19
2019-04-30T20:51:20.940Z,11.20
2019-04-30T20:53:52.579Z,11.23
2019-04-30T20:56:24.483Z,11.23
2019-04-30T20:59:01.173Z,11.22
2019-04-30T21:01:30.114Z,11.19
2019-04-30T21:04:02.004Z,11.19
2019-04-30T21:06:33.859Z,11.17
2019-04-30T21:09:06.759Z,11.15
2019-04-30T21:11:40.459Z,11.15
2019-04-30T21:14:12.648Z,11.13
2019-04-30T21:16:44.533Z,11.12
2019-04-30T21:19:16.567Z,11.13
2019-04-30T21:21:49.708Z,11.13
2019-04-30T21:24:21.611Z,11.10
2019-04-30T21:26:53.396Z,11.10
2019-04-30T21:29:25.029Z,11.12
2019-04-30T21:32:01.291Z,11.10
2019-04-30T21:34:39.371Z,11.06
2019-04-30T21:37:11.199Z,11.06
2019-04-30T21:39:43.112Z,11.05
2019-04-30T21:42:15.918Z,11.01
2019-04-30T21:44:47.824Z,11.02
2019-04-30T21:47:19.829Z,10.98
2019-04-30T21:49:51.795Z,10.97
2019-04-30T21:52:23.473Z,10.97
2019-04-30T21:54:56.770Z,10.98
2019-04-30T21:57:28.834Z,10.99
2019-04-30T22:00:00.494Z,10.99
2019-04-30T22:02:33.893Z,10.98
2019-04-30T22:05:07.011Z,10.97
2019-04-30T22:07:38.853Z,10.97
2019-04-30T22:10:11.288Z,10.98
2019-04-30T22:12:42.983Z,10.97
2019-04-30T22:15:14.921Z,10.96
2019-04-30T22:17:46.511Z,10.95
2019-04-30T22:20:19.076Z,10.94
2019-04-30T22:22:50.744Z,10.95
2019-04-30T22:25:22.611Z,10.93
2019-04-30T22:27:54.668Z,10.90
2019-04-30T22:30:27.425Z,10.93
2019-04-30T22:32:59.640Z,10.95
2019-04-30T22:35:33.193Z,10.99
2019-04-30T22:38:09.805Z,10.96
2019-04-30T22:40:41.442Z,10.96
2019-04-30T22:43:14.446Z,10.94
2019-04-30T22:45:51.128Z,10.97
2019-04-30T22:48:23.086Z,11.00
2019-04-30T22:50:54.948Z,11.02
2019-04-30T22:53:26.696Z,11.03
2019-04-30T22:55:58.329Z,11.03
2019-04-30T22:58:30.128Z,11.00
2019-04-30T23:01:12.870Z,10.96
2019-04-30T23:03:45.019Z,10.97
2019-04-30T23:06:16.883Z,10.94
2019-04-30T23:08:48.748Z,10.96
2019-04-30T23:11:20.910Z,10.96
2019-04-30T23:13:52.483Z,10.97
2019-04-30T23:16:24.443Z,10.96
2019-04-30T23:18:56.495Z,10.94
2019-04-30T23:21:28.171Z,10.94
2019-04-30T23:24:00.032Z,10.92
2019-04-30T23:26:32.085Z,10.88
2019-04-30T23:29:04.175Z,10.87
2019-04-30T23:31:37.344Z,10.87
2019-04-30T23:34:17.752Z,10.86
2019-04-30T23:36:42.916Z,10.88
2019-04-30T23:39:14.797Z,10.87
2019-04-30T23:41:46.764Z,10.87
2019-04-30T23:44:18.510Z,10.83
2019-04-30T23:46:50.591Z,10.83
2019-04-30T23:49:22.445Z,10.80
2019-04-30T23:51:54.529Z,10.80
2019-04-30T23:54:26.308Z,10.81
2019-04-30T23:56:58.151Z,10.79
2019-04-30T23:59:30.115Z,10.77
